Susan Ann — WCY5700 — position and weather

sailwx.info

Track history (hours):
 
Tides and Currents Weather Stations Pressure Air Temp Water Temp Dewpoint Dewpoint Depression Visibility Wind Speed Wind Dir Waves Ship Positions

Susan Ann

Owner: CROSS SOUND FERRY SERVICES INC, NEW LONDON, CT. More information available from US FCC via Universal Licensing System and Coast Guard Vessel Documentation Center.

Last reported at 2016-May-30 00:24 UTC. Time now 2016-May-30 16:28 UTC.
Position N 41°10' W 072°13'.

Length 72 m; draft 4 m.

Type: Passenger vessel. MMSI: 367354350.

Date/timePositionNaut miles runAvg speedWind from/ knotsBaromVisibWave heightAir tempDewpointWater temp
2016-May-30 00:24N 41°10' W 072°13'4 1.6
2016-May-29 21:32N 41°13' W 072°10'5 5.5
2016-May-29 20:33N 41°09' W 072°14'9 8.6
2016-May-29 19:29N 41°17' W 072°07'4 2.1
2016-May-29 17:33N 41°13' W 072°10'4 2.8
2016-May-29 16:07N 41°10' W 072°14'1 0.2
2016-May-29 12:06N 41°11' W 072°13'8 0.8
2016-May-29 01:34N 41°17' W 072°06'10 9.8
2016-May-29 00:32N 41°09' W 072°14'8 7.7
2016-May-28 23:32N 41°15' W 072°08'4 1.8
2016-May-28 21:30N 41°12' W 072°11'4 4.2
2016-May-28 20:31N 41°09' W 072°14'6 2.0
2016-May-28 17:33N 41°14' W 072°09'6 5.7
2016-May-28 16:32N 41°09' W 072°14'10 0.7
2016-May-28 01:32N 41°17' W 072°06'1010.0
2016-May-28 00:32N 41°09' W 072°14'8 8.4
2016-May-27 23:33N 41°16' W 072°08'4 1.9
2016-May-27 21:33N 41°13' W 072°11'4 3.6
2016-May-27 20:20N 41°09' W 072°14'5 1.9
2016-May-27 17:33N 41°13' W 072°10'5 5.1
2016-May-27 16:31N 41°09' W 072°14'8 1.6
2016-May-27 11:33N 41°16' W 072°08'1 0.1
2016-May-27 01:28N 41°16' W 072°07'1 0.5
2016-May-26 23:33N 41°16' W 072°08'4 1.8
2016-May-26 21:31N 41°13' W 072°11'3 1.9
2016-May-26 20:07N 41°11' W 072°13'2 0.6
2016-May-26 17:25N 41°12' W 072°12'3 3.7
2016-May-26 16:31N 41°09' W 072°14'6 1.8
2016-May-26 13:31N 41°13' W 072°09'4 0.3
2016-May-25 22:09N 41°11' W 072°14'0 0.0
2016-May-25 00:31N 41°11' W 072°13'2 0.8
2016-May-24 21:30N 41°12' W 072°11'4 4.2
2016-May-24 20:33N 41°09' W 072°14'0 0.0
2016-May-23 22:17N 41°09' W 072°14'911.4
2016-May-23 21:32N 41°16' W 072°07'9 0.4
2016-May-23 02:14N 41°09' W 072°14'4 6.1
2016-May-23 01:33N 41°13' W 072°12'1 0.7
2016-May-22 23:33N 41°13' W 072°10'5 4.8
2016-May-22 22:31N 41°09' W 072°14'9 9.2
2016-May-22 21:33N 41°16' W 072°07'4 2.2
2016-May-22 19:31N 41°13' W 072°11'4 4.3
2016-May-22 18:30N 41°09' W 072°14'8 8.4
2016-May-22 17:33N 41°16' W 072°08'8 0.5
2016-May-22 00:33N 41°09' W 072°14'10 9.4
2016-May-21 23:32N 41°17' W 072°07'4 2.1
2016-May-21 21:33N 41°13' W 072°10'5 5.3
2016-May-21 20:33N 41°09' W 072°14'12 4.6
2016-May-21 18:03N 41°18' W 072°05'714.4
2016-May-21 17:34N 41°13' W 072°11'4 4.4
2016-May-21 16:34N 41°09' W 072°14'8 0.5
2016-May-21 01:30N 41°16' W 072°08'8 8.2
2016-May-21 00:32N 41°09' W 072°14'8 7.8
2016-May-20 23:33N 41°15' W 072°08'2 1.2
2016-May-20 21:33N 41°13' W 072°10'  
Track history (hours):
 
Tides and Currents Weather Stations Pressure Air Temp Water Temp Dewpoint Dewpoint Depression Visibility Wind Speed Wind Dir Waves Ship Positions

Susan Ann

Owner: CROSS SOUND FERRY SERVICES INC, NEW LONDON, CT. More information available from US FCC via Universal Licensing System and Coast Guard Vessel Documentation Center.

Last reported at 2016-May-30 00:24 UTC. Time now 2016-May-30 16:28 UTC.
Position N 41°10' W 072°13'.

Length 72 m; draft 4 m.

Type: Passenger vessel. MMSI: 367354350.

Date/timePositionNaut miles runAvg speedWind from/ knotsBaromVisibWave heightAir tempDewpointWater temp
2016-May-30 00:24N 41°10' W 072°13'4 1.6
2016-May-29 21:32N 41°13' W 072°10'5 5.5
2016-May-29 20:33N 41°09' W 072°14'9 8.6
2016-May-29 19:29N 41°17' W 072°07'4 2.1
2016-May-29 17:33N 41°13' W 072°10'4 2.8
2016-May-29 16:07N 41°10' W 072°14'1 0.2
2016-May-29 12:06N 41°11' W 072°13'8 0.8
2016-May-29 01:34N 41°17' W 072°06'10 9.8
2016-May-29 00:32N 41°09' W 072°14'8 7.7
2016-May-28 23:32N 41°15' W 072°08'4 1.8
2016-May-28 21:30N 41°12' W 072°11'4 4.2
2016-May-28 20:31N 41°09' W 072°14'6 2.0
2016-May-28 17:33N 41°14' W 072°09'6 5.7
2016-May-28 16:32N 41°09' W 072°14'10 0.7
2016-May-28 01:32N 41°17' W 072°06'1010.0
2016-May-28 00:32N 41°09' W 072°14'8 8.4
2016-May-27 23:33N 41°16' W 072°08'4 1.9
2016-May-27 21:33N 41°13' W 072°11'4 3.6
2016-May-27 20:20N 41°09' W 072°14'5 1.9
2016-May-27 17:33N 41°13' W 072°10'5 5.1
2016-May-27 16:31N 41°09' W 072°14'8 1.6
2016-May-27 11:33N 41°16' W 072°08'1 0.1
2016-May-27 01:28N 41°16' W 072°07'1 0.5
2016-May-26 23:33N 41°16' W 072°08'4 1.8
2016-May-26 21:31N 41°13' W 072°11'3 1.9
2016-May-26 20:07N 41°11' W 072°13'2 0.6
2016-May-26 17:25N 41°12' W 072°12'3 3.7
2016-May-26 16:31N 41°09' W 072°14'6 1.8
2016-May-26 13:31N 41°13' W 072°09'4 0.3
2016-May-25 22:09N 41°11' W 072°14'0 0.0
2016-May-25 00:31N 41°11' W 072°13'2 0.8
2016-May-24 21:30N 41°12' W 072°11'4 4.2
2016-May-24 20:33N 41°09' W 072°14'0 0.0
2016-May-23 22:17N 41°09' W 072°14'911.4
2016-May-23 21:32N 41°16' W 072°07'9 0.4
2016-May-23 02:14N 41°09' W 072°14'4 6.1
2016-May-23 01:33N 41°13' W 072°12'1 0.7
2016-May-22 23:33N 41°13' W 072°10'5 4.8
2016-May-22 22:31N 41°09' W 072°14'9 9.2
2016-May-22 21:33N 41°16' W 072°07'4 2.2
2016-May-22 19:31N 41°13' W 072°11'4 4.3
2016-May-22 18:30N 41°09' W 072°14'8 8.4
2016-May-22 17:33N 41°16' W 072°08'8 0.5
2016-May-22 00:33N 41°09' W 072°14'10 9.4
2016-May-21 23:32N 41°17' W 072°07'4 2.1
2016-May-21 21:33N 41°13' W 072°10'5 5.3
2016-May-21 20:33N 41°09' W 072°14'12 4.6
2016-May-21 18:03N 41°18' W 072°05'714.4
2016-May-21 17:34N 41°13' W 072°11'4 4.4
2016-May-21 16:34N 41°09' W 072°14'8 0.5
2016-May-21 01:30N 41°16' W 072°08'8 8.2
2016-May-21 00:32N 41°09' W 072°14'8 7.8
2016-May-20 23:33N 41°15' W 072°08'2 1.2
2016-May-20 21:33N 41°13' W 072°10'  

Dump ship's entire track history